sensor_id;sensor_type;location;lat;lon;timestamp;P1;durP1;ratioP1;P2;durP2;ratioP2
7563;SDS011;3823;53.586;10.040;2023-05-07T04:02:48;11.75;;;9.32;;
7563;SDS011;3823;53.586;10.040;2023-05-07T04:05:15;13.75;;;10.23;;
7563;SDS011;3823;53.586;10.040;2023-05-07T04:07:41;11.15;;;9.52;;
7563;SDS011;3823;53.586;10.040;2023-05-07T04:10:06;13.65;;;9.55;;
7563;SDS011;3823;53.586;10.040;2023-05-07T04:12:32;13.10;;;10.23;;
7563;SDS011;3823;53.586;10.040;2023-05-07T04:14:58;11.85;;;10.00;;
7563;SDS011;3823;53.586;10.040;2023-05-07T04:17:24;11.90;;;9.82;;
7563;SDS011;3823;53.586;10.040;2023-05-07T04:19:49;16.02;;;10.57;;
7563;SDS011;3823;53.586;10.040;2023-05-07T04:22:15;14.52;;;9.88;;
7563;SDS011;3823;53.586;10.040;2023-05-07T04:24:40;14.50;;;9.95;;
7563;SDS011;3823;53.586;10.040;2023-05-07T04:27:06;11.95;;;8.75;;
7563;SDS011;3823;53.586;10.040;2023-05-07T04:29:32;13.10;;;9.52;;
7563;SDS011;3823;53.586;10.040;2023-05-07T04:31:57;12.23;;;9.13;;
7563;SDS011;3823;53.586;10.040;2023-05-07T04:34:23;11.30;;;8.73;;
7563;SDS011;3823;53.586;10.040;2023-05-07T04:36:49;10.57;;;8.88;;
7563;SDS011;3823;53.586;10.040;2023-05-07T04:39:14;12.90;;;8.80;;
7563;SDS011;3823;53.586;10.040;2023-05-07T04:41:40;9.30;;;8.32;;
7563;SDS011;3823;53.586;10.040;2023-05-07T04:44:05;11.30;;;8.77;;
7563;SDS011;3823;53.586;10.040;2023-05-07T04:46:31;14.15;;;9.90;;
7563;SDS011;3823;53.586;10.040;2023-05-07T04:48:57;12.75;;;8.38;;
7563;SDS011;3823;53.586;10.040;2023-05-07T04:51:22;10.40;;;7.90;;
7563;SDS011;3823;53.586;10.040;2023-05-07T04:53:48;10.77;;;8.35;;
7563;SDS011;3823;53.586;10.040;2023-05-07T04:56:14;12.13;;;9.35;;
7563;SDS011;3823;53.586;10.040;2023-05-07T04:58:39;11.23;;;8.52;;
7563;SDS011;3823;53.586;10.040;2023-05-07T05:01:05;12.40;;;9.23;;
7563;SDS011;3823;53.586;10.040;2023-05-07T05:03:31;11.98;;;9.38;;
7563;SDS011;3823;53.586;10.040;2023-05-07T05:05:56;10.25;;;9.15;;
7563;SDS011;3823;53.586;10.040;2023-05-07T05:08:24;12.68;;;9.18;;
7563;SDS011;3823;53.586;10.040;2023-05-07T05:10:49;12.63;;;8.82;;
7563;SDS011;3823;53.586;10.040;2023-05-07T05:13:15;14.55;;;8.80;;
7563;SDS011;3823;53.586;10.040;2023-05-07T05:15:41;14.32;;;10.85;;
7563;SDS011;3823;53.586;10.040;2023-05-07T05:18:06;11.68;;;8.60;;
7563;SDS011;3823;53.586;10.040;2023-05-07T05:20:32;10.27;;;8.60;;
7563;SDS011;3823;53.586;10.040;2023-05-07T05:22:58;14.05;;;8.90;;
7563;SDS011;3823;53.586;10.040;2023-05-07T05:25:23;14.30;;;9.43;;
7563;SDS011;3823;53.586;10.040;2023-05-07T05:27:49;13.05;;;9.82;;
7563;SDS011;3823;53.586;10.040;2023-05-07T05:30:14;13.43;;;9.50;;
7563;SDS011;3823;53.586;10.040;2023-05-07T05:32:40;13.00;;;9.82;;
7563;SDS011;3823;53.586;10.040;2023-05-07T05:35:05;15.85;;;9.80;;
7563;SDS011;3823;53.586;10.040;2023-05-07T05:37:31;12.23;;;9.90;;
7563;SDS011;3823;53.586;10.040;2023-05-07T05:39:57;13.50;;;10.85;;
7563;SDS011;3823;53.586;10.040;2023-05-07T05:42:22;12.98;;;9.07;;
7563;SDS011;3823;53.586;10.040;2023-05-07T05:44:48;12.35;;;9.40;;
7563;SDS011;3823;53.586;10.040;2023-05-07T05:47:14;10.65;;;9.25;;
7563;SDS011;3823;53.586;10.040;2023-05-07T05:49:39;12.77;;;9.50;;
7563;SDS011;3823;53.586;10.040;2023-05-07T05:52:05;10.05;;;8.75;;
7563;SDS011;3823;53.586;10.040;2023-05-07T05:54:30;11.95;;;9.07;;
7563;SDS011;3823;53.586;10.040;2023-05-07T05:56:56;11.60;;;10.20;;
7563;SDS011;3823;53.586;10.040;2023-05-07T05:59:22;13.35;;;10.15;;
7563;SDS011;3823;53.586;10.040;2023-05-07T06:01:47;13.70;;;10.05;;
7563;SDS011;3823;53.586;10.040;2023-05-07T06:04:13;15.70;;;9.20;;
7563;SDS011;3823;53.586;10.040;2023-05-07T06:06:38;11.70;;;8.88;;
7563;SDS011;3823;53.586;10.040;2023-05-07T06:09:04;12.43;;;9.35;;
7563;SDS011;3823;53.586;10.040;2023-05-07T06:11:29;11.57;;;9.95;;
7563;SDS011;3823;53.586;10.040;2023-05-07T06:13:56;11.20;;;10.05;;
7563;SDS011;3823;53.586;10.040;2023-05-07T06:16:22;11.57;;;8.93;;
7563;SDS011;3823;53.586;10.040;2023-05-07T06:18:47;11.48;;;9.40;;
7563;SDS011;3823;53.586;10.040;2023-05-07T06:21:13;11.98;;;8.02;;
7563;SDS011;3823;53.586;10.040;2023-05-07T06:23:40;10.55;;;8.85;;
7563;SDS011;3823;53.586;10.040;2023-05-07T06:26:06;11.07;;;9.40;;
7563;SDS011;3823;53.586;10.040;2023-05-07T06:28:31;14.05;;;9.88;;
7563;SDS011;3823;53.586;10.040;2023-05-07T06:31:14;11.85;;;9.30;;
7563;SDS011;3823;53.586;10.040;2023-05-07T06:33:40;12.60;;;8.77;;
7563;SDS011;3823;53.586;10.040;2023-05-07T06:36:06;9.27;;;7.43;;
7563;SDS011;3823;53.586;10.040;2023-05-07T06:38:31;11.00;;;8.60;;
7563;SDS011;3823;53.586;10.040;2023-05-07T06:40:57;11.00;;;9.20;;
7563;SDS011;3823;53.586;10.040;2023-05-07T06:43:22;11.68;;;8.43;;
7563;SDS011;3823;53.586;10.040;2023-05-07T06:45:48;10.25;;;7.35;;
7563;SDS011;3823;53.586;10.040;2023-05-07T06:48:13;9.70;;;8.18;;
7563;SDS011;3823;53.586;10.040;2023-05-07T06:50:39;9.23;;;8.15;;
7563;SDS011;3823;53.586;10.040;2023-05-07T06:53:05;11.43;;;7.90;;
7563;SDS011;3823;53.586;10.040;2023-05-07T06:55:30;9.30;;;8.30;;
7563;SDS011;3823;53.586;10.040;2023-05-07T06:57:56;9.63;;;8.60;;
7563;SDS011;3823;53.586;10.040;2023-05-07T07:00:25;11.13;;;8.25;;
7563;SDS011;3823;53.586;10.040;2023-05-07T07:02:51;9.57;;;7.45;;
7563;SDS011;3823;53.586;10.040;2023-05-07T07:05:17;9.93;;;8.25;;
7563;SDS011;3823;53.586;10.040;2023-05-07T07:07:43;9.38;;;7.35;;
7563;SDS011;3823;53.586;10.040;2023-05-07T07:10:09;12.15;;;9.18;;
7563;SDS011;3823;53.586;10.040;2023-05-07T07:12:34;8.85;;;7.82;;
7563;SDS011;3823;53.586;10.040;2023-05-07T07:15:00;13.73;;;8.93;;
7563;SDS011;3823;53.586;10.040;2023-05-07T07:17:25;13.23;;;8.50;;
7563;SDS011;3823;53.586;10.040;2023-05-07T07:19:51;9.60;;;8.05;;
7563;SDS011;3823;53.586;10.040;2023-05-07T07:22:16;9.13;;;8.20;;
7563;SDS011;3823;53.586;10.040;2023-05-07T07:24:42;9.25;;;8.30;;
7563;SDS011;3823;53.586;10.040;2023-05-07T07:27:07;10.25;;;7.95;;
7563;SDS011;3823;53.586;10.040;2023-05-07T07:29:33;9.15;;;8.23;;
7563;SDS011;3823;53.586;10.040;2023-05-07T07:31:59;10.60;;;8.38;;
7563;SDS011;3823;53.586;10.040;2023-05-07T07:34:24;9.60;;;7.13;;
7563;SDS011;3823;53.586;10.040;2023-05-07T07:36:50;9.35;;;8.00;;
7563;SDS011;3823;53.586;10.040;2023-05-07T07:39:15;9.10;;;7.65;;
7563;SDS011;3823;53.586;10.040;2023-05-07T07:41:41;8.98;;;8.07;;
7563;SDS011;3823;53.586;10.040;2023-05-07T07:44:06;8.45;;;7.57;;
7563;SDS011;3823;53.586;10.040;2023-05-07T07:46:33;8.35;;;7.45;;
7563;SDS011;3823;53.586;10.040;2023-05-07T07:48:59;8.40;;;6.80;;
7563;SDS011;3823;53.586;10.040;2023-05-07T07:51:25;9.45;;;8.48;;
7563;SDS011;3823;53.586;10.040;2023-05-07T07:53:51;8.57;;;7.75;;
7563;SDS011;3823;53.586;10.040;2023-05-07T07:56:17;7.43;;;6.72;;
7563;SDS011;3823;53.586;10.040;2023-05-07T07:58:42;8.88;;;8.00;;
7563;SDS011;3823;53.586;10.040;2023-05-07T08:01:08;10.15;;;7.82;;
7563;SDS011;3823;53.586;10.040;2023-05-07T08:03:33;7.70;;;6.68;;
7563;SDS011;3823;53.586;10.040;2023-05-07T08:05:59;12.05;;;8.18;;
7563;SDS011;3823;53.586;10.040;2023-05-07T08:08:24;8.40;;;7.50;;
7563;SDS011;3823;53.586;10.040;2023-05-07T08:10:50;8.27;;;7.22;;
7563;SDS011;3823;53.586;10.040;2023-05-07T08:13:17;11.15;;;8.45;;
7563;SDS011;3823;53.586;10.040;2023-05-07T08:15:42;8.05;;;7.25;;
7563;SDS011;3823;53.586;10.040;2023-05-07T08:18:08;9.38;;;7.68;;
7563;SDS011;3823;53.586;10.040;2023-05-07T08:20:34;9.20;;;8.30;;
7563;SDS011;3823;53.586;10.040;2023-05-07T08:23:04;10.65;;;8.15;;
7563;SDS011;3823;53.586;10.040;2023-05-07T08:25:32;8.65;;;7.28;;
7563;SDS011;3823;53.586;10.040;2023-05-07T08:28:02;9.43;;;8.40;;
7563;SDS011;3823;53.586;10.040;2023-05-07T08:30:28;11.43;;;8.35;;
7563;SDS011;3823;53.586;10.040;2023-05-07T08:32:53;8.55;;;7.65;;
7563;SDS011;3823;53.586;10.040;2023-05-07T08:35:19;8.02;;;7.22;;
7563;SDS011;3823;53.586;10.040;2023-05-07T08:37:45;9.10;;;7.78;;
7563;SDS011;3823;53.586;10.040;2023-05-07T08:40:10;8.68;;;7.50;;
7563;SDS011;3823;53.586;10.040;2023-05-07T08:42:36;8.25;;;6.85;;
7563;SDS011;3823;53.586;10.040;2023-05-07T08:45:03;8.45;;;7.65;;
7563;SDS011;3823;53.586;10.040;2023-05-07T08:47:34;8.57;;;7.55;;
7563;SDS011;3823;53.586;10.040;2023-05-07T08:50:09;7.95;;;7.25;;
7563;SDS011;3823;53.586;10.040;2023-05-07T08:52:35;10.70;;;8.10;;
7563;SDS011;3823;53.586;10.040;2023-05-07T08:55:02;9.95;;;8.35;;
7563;SDS011;3823;53.586;10.040;2023-05-07T08:57:28;8.88;;;7.93;;
7563;SDS011;3823;53.586;10.040;2023-05-07T08:59:53;8.90;;;7.05;;
7563;SDS011;3823;53.586;10.040;2023-05-07T09:02:19;8.43;;;7.63;;
7563;SDS011;3823;53.586;10.040;2023-05-07T09:04:45;9.68;;;7.78;;
7563;SDS011;3823;53.586;10.040;2023-05-07T09:07:10;8.50;;;6.75;;
7563;SDS011;3823;53.586;10.040;2023-05-07T09:09:36;7.43;;;6.82;;
7563;SDS011;3823;53.586;10.040;2023-05-07T09:12:02;7.10;;;6.50;;
7563;SDS011;3823;53.586;10.040;2023-05-07T09:14:28;9.30;;;7.40;;
7563;SDS011;3823;53.586;10.040;2023-05-07T09:16:55;8.05;;;7.25;;
7563;SDS011;3823;53.586;10.040;2023-05-07T09:19:24;8.23;;;6.50;;
7563;SDS011;3823;53.586;10.040;2023-05-07T09:21:57;8.35;;;7.13;;
7563;SDS011;3823;53.586;10.040;2023-05-07T09:24:27;9.63;;;6.93;;
7563;SDS011;3823;53.586;10.040;2023-05-07T09:26:57;7.60;;;6.63;;
7563;SDS011;3823;53.586;10.040;2023-05-07T09:29:24;7.30;;;6.60;;
7563;SDS011;3823;53.586;10.040;2023-05-07T09:31:50;9.02;;;6.10;;
7563;SDS011;3823;53.586;10.040;2023-05-07T09:34:15;7.05;;;6.35;;
7563;SDS011;3823;53.586;10.040;2023-05-07T09:36:41;7.15;;;6.45;;
7563;SDS011;3823;53.586;10.040;2023-05-07T09:39:07;9.68;;;6.93;;
7563;SDS011;3823;53.586;10.040;2023-05-07T09:41:32;8.55;;;7.60;;
7563;SDS011;3823;53.586;10.040;2023-05-07T09:44:07;7.28;;;6.63;;
7563;SDS011;3823;53.586;10.040;2023-05-07T09:46:37;8.15;;;7.15;;
7563;SDS011;3823;53.586;10.040;2023-05-07T09:49:03;7.95;;;7.18;;
7563;SDS011;3823;53.586;10.040;2023-05-07T09:51:43;7.32;;;6.72;;
7563;SDS011;3823;53.586;10.040;2023-05-07T09:54:17;7.10;;;6.40;;
7563;SDS011;3823;53.586;10.040;2023-05-07T09:56:43;6.63;;;5.97;;
7563;SDS011;3823;53.586;10.040;2023-05-07T09:59:13;7.65;;;6.78;;
7563;SDS011;3823;53.586;10.040;2023-05-07T10:01:40;7.00;;;6.28;;
7563;SDS011;3823;53.586;10.040;2023-05-07T10:04:07;7.35;;;6.65;;
7563;SDS011;3823;53.586;10.040;2023-05-07T10:06:34;7.20;;;6.35;;
7563;SDS011;3823;53.586;10.040;2023-05-07T10:09:00;7.40;;;6.07;;
7563;SDS011;3823;53.586;10.040;2023-05-07T10:11:27;7.72;;;7.05;;
7563;SDS011;3823;53.586;10.040;2023-05-07T10:13:53;6.68;;;6.07;;
7563;SDS011;3823;53.586;10.040;2023-05-07T10:16:20;7.22;;;6.55;;
7563;SDS011;3823;53.586;10.040;2023-05-07T10:18:46;7.78;;;6.97;;
7563;SDS011;3823;53.586;10.040;2023-05-07T10:21:17;7.32;;;6.55;;
7563;SDS011;3823;53.586;10.040;2023-05-07T10:23:57;7.30;;;6.60;;
7563;SDS011;3823;53.586;10.040;2023-05-07T10:26:25;6.90;;;5.93;;
7563;SDS011;3823;53.586;10.040;2023-05-07T10:28:56;7.13;;;6.43;;
7563;SDS011;3823;53.586;10.040;2023-05-07T10:34:08;6.93;;;6.32;;
7563;SDS011;3823;53.586;10.040;2023-05-07T10:36:37;7.40;;;6.65;;
7563;SDS011;3823;53.586;10.040;2023-05-07T10:39:04;5.15;;;4.75;;
7563;SDS011;3823;53.586;10.040;2023-05-07T10:41:30;9.45;;;6.85;;
7563;SDS011;3823;53.586;10.040;2023-05-07T10:43:56;7.45;;;6.63;;
7563;SDS011;3823;53.586;10.040;2023-05-07T10:46:26;7.07;;;6.47;;
7563;SDS011;3823;53.586;10.040;2023-05-07T10:51:31;7.63;;;6.65;;
7563;SDS011;3823;53.586;10.040;2023-05-07T10:56:36;6.90;;;6.05;;
7563;SDS011;3823;53.586;10.040;2023-05-07T11:04:22;6.40;;;5.80;;
7563;SDS011;3823;53.586;10.040;2023-05-07T11:15:04;5.25;;;4.75;;
7563;SDS011;3823;53.586;10.040;2023-05-07T11:17:31;5.30;;;4.80;;
7563;SDS011;3823;53.586;10.040;2023-05-07T11:19:59;6.15;;;5.57;;
7563;SDS011;3823;53.586;10.040;2023-05-07T11:25:01;5.95;;;5.45;;
7563;SDS011;3823;53.586;10.040;2023-05-07T11:27:28;5.43;;;4.93;;
7563;SDS011;3823;53.586;10.040;2023-05-07T11:29:54;6.88;;;5.85;;
7563;SDS011;3823;53.586;10.040;2023-05-07T11:32:27;5.57;;;5.05;;
7563;SDS011;3823;53.586;10.040;2023-05-07T11:34:54;4.45;;;4.15;;
7563;SDS011;3823;53.586;10.040;2023-05-07T11:37:21;8.38;;;5.07;;
7563;SDS011;3823;53.586;10.040;2023-05-07T11:39:48;4.93;;;4.53;;
7563;SDS011;3823;53.586;10.040;2023-05-07T11:42:28;6.55;;;5.10;;
7563;SDS011;3823;53.586;10.040;2023-05-07T11:44:55;5.47;;;5.07;;
7563;SDS011;3823;53.586;10.040;2023-05-07T11:47:21;6.65;;;4.75;;
7563;SDS011;3823;53.586;10.040;2023-05-07T11:49:50;5.13;;;4.68;;
7563;SDS011;3823;53.586;10.040;2023-05-07T11:52:18;5.25;;;4.75;;
7563;SDS011;3823;53.586;10.040;2023-05-07T11:54:54;5.10;;;4.70;;
7563;SDS011;3823;53.586;10.040;2023-05-07T11:57:21;4.00;;;3.70;;
7563;SDS011;3823;53.586;10.040;2023-05-07T11:59:48;4.07;;;3.88;;
7563;SDS011;3823;53.586;10.040;2023-05-07T12:02:17;5.25;;;4.85;;
7563;SDS011;3823;53.586;10.040;2023-05-07T12:04:43;5.28;;;4.63;;
7563;SDS011;3823;53.586;10.040;2023-05-07T12:07:12;6.55;;;5.30;;
7563;SDS011;3823;53.586;10.040;2023-05-07T12:09:42;4.35;;;4.05;;
7563;SDS011;3823;53.586;10.040;2023-05-07T12:12:08;4.60;;;4.20;;
7563;SDS011;3823;53.586;10.040;2023-05-07T12:14:38;3.58;;;3.38;;
7563;SDS011;3823;53.586;10.040;2023-05-07T12:17:05;3.63;;;3.33;;
7563;SDS011;3823;53.586;10.040;2023-05-07T12:19:32;3.92;;;3.63;;
7563;SDS011;3823;53.586;10.040;2023-05-07T12:21:59;3.92;;;3.67;;
7563;SDS011;3823;53.586;10.040;2023-05-07T12:24:26;3.58;;;3.28;;
7563;SDS011;3823;53.586;10.040;2023-05-07T12:26:51;4.53;;;3.22;;
7563;SDS011;3823;53.586;10.040;2023-05-07T12:29:17;3.38;;;3.17;;
7563;SDS011;3823;53.586;10.040;2023-05-07T12:31:47;3.50;;;3.20;;
7563;SDS011;3823;53.586;10.040;2023-05-07T12:34:14;4.45;;;4.05;;
7563;SDS011;3823;53.586;10.040;2023-05-07T12:36:40;4.28;;;3.88;;
7563;SDS011;3823;53.586;10.040;2023-05-07T12:39:06;3.75;;;3.08;;
7563;SDS011;3823;53.586;10.040;2023-05-07T12:44:21;3.63;;;3.42;;
7563;SDS011;3823;53.586;10.040;2023-05-07T12:46:48;3.83;;;3.53;;
7563;SDS011;3823;53.586;10.040;2023-05-07T12:49:14;4.55;;;4.00;;
7563;SDS011;3823;53.586;10.040;2023-05-07T12:51:40;4.28;;;2.90;;
7563;SDS011;3823;53.586;10.040;2023-05-07T12:54:05;3.53;;;3.33;;
7563;SDS011;3823;53.586;10.040;2023-05-07T12:56:31;3.00;;;2.80;;
7563;SDS011;3823;53.586;10.040;2023-05-07T12:58:57;2.90;;;2.70;;
7563;SDS011;3823;53.586;10.040;2023-05-07T13:01:28;3.03;;;2.83;;
7563;SDS011;3823;53.586;10.040;2023-05-07T13:03:55;3.42;;;3.05;;
7563;SDS011;3823;53.586;10.040;2023-05-07T13:06:20;2.80;;;2.60;;
7563;SDS011;3823;53.586;10.040;2023-05-07T13:08:46;5.60;;;3.35;;
7563;SDS011;3823;53.586;10.040;2023-05-07T13:11:12;3.55;;;3.35;;
7563;SDS011;3823;53.586;10.040;2023-05-07T13:13:38;4.50;;;3.35;;
7563;SDS011;3823;53.586;10.040;2023-05-07T13:16:05;3.38;;;3.03;;
7563;SDS011;3823;53.586;10.040;2023-05-07T13:18:33;3.22;;;2.92;;
7563;SDS011;3823;53.586;10.040;2023-05-07T13:20:59;3.13;;;2.85;;
7563;SDS011;3823;53.586;10.040;2023-05-07T13:23:25;3.65;;;3.35;;
7563;SDS011;3823;53.586;10.040;2023-05-07T13:25:51;6.88;;;3.13;;
7563;SDS011;3823;53.586;10.040;2023-05-07T13:28:20;3.53;;;3.25;;
7563;SDS011;3823;53.586;10.040;2023-05-07T13:30:46;3.72;;;3.40;;
7563;SDS011;3823;53.586;10.040;2023-05-07T13:33:12;3.10;;;2.90;;
7563;SDS011;3823;53.586;10.040;2023-05-07T13:35:38;2.60;;;2.40;;
7563;SDS011;3823;53.586;10.040;2023-05-07T13:38:04;3.35;;;2.42;;
7563;SDS011;3823;53.586;10.040;2023-05-07T13:40:30;2.70;;;2.50;;
7563;SDS011;3823;53.586;10.040;2023-05-07T13:42:59;3.03;;;2.50;;
7563;SDS011;3823;53.586;10.040;2023-05-07T13:45:27;3.30;;;3.05;;
7563;SDS011;3823;53.586;10.040;2023-05-07T13:47:54;3.03;;;2.83;;
7563;SDS011;3823;53.586;10.040;2023-05-07T13:50:20;3.08;;;2.83;;
7563;SDS011;3823;53.586;10.040;2023-05-07T13:52:46;2.75;;;2.55;;
7563;SDS011;3823;53.586;10.040;2023-05-07T13:55:16;2.92;;;2.72;;
7563;SDS011;3823;53.586;10.040;2023-05-07T13:57:42;3.50;;;2.17;;
7563;SDS011;3823;53.586;10.040;2023-05-07T14:00:08;3.42;;;3.22;;
7563;SDS011;3823;53.586;10.040;2023-05-07T14:02:34;3.30;;;2.90;;
7563;SDS011;3823;53.586;10.040;2023-05-07T14:05:00;3.92;;;2.70;;
7563;SDS011;3823;53.586;10.040;2023-05-07T14:07:25;2.65;;;2.45;;
7563;SDS011;3823;53.586;10.040;2023-05-07T14:09:51;2.92;;;2.72;;
7563;SDS011;3823;53.586;10.040;2023-05-07T14:12:16;2.65;;;2.45;;
7563;SDS011;3823;53.586;10.040;2023-05-07T14:14:42;2.90;;;2.70;;
7563;SDS011;3823;53.586;10.040;2023-05-07T14:17:07;2.30;;;2.20;;
7563;SDS011;3823;53.586;10.040;2023-05-07T14:19:33;2.63;;;2.53;;
7563;SDS011;3823;53.586;10.040;2023-05-07T14:21:58;2.70;;;2.50;;
7563;SDS011;3823;53.586;10.040;2023-05-07T14:24:24;5.68;;;3.08;;
7563;SDS011;3823;53.586;10.040;2023-05-07T14:26:50;3.65;;;3.33;;
7563;SDS011;3823;53.586;10.040;2023-05-07T14:29:16;2.70;;;2.50;;
7563;SDS011;3823;53.586;10.040;2023-05-07T14:31:43;3.28;;;2.97;;
7563;SDS011;3823;53.586;10.040;2023-05-07T14:34:09;3.13;;;2.83;;
7563;SDS011;3823;53.586;10.040;2023-05-07T14:36:35;3.10;;;2.90;;
7563;SDS011;3823;53.586;10.040;2023-05-07T14:39:00;2.75;;;2.55;;
7563;SDS011;3823;53.586;10.040;2023-05-07T14:41:26;2.55;;;2.35;;
7563;SDS011;3823;53.586;10.040;2023-05-07T14:43:52;2.95;;;2.72;;
7563;SDS011;3823;53.586;10.040;2023-05-07T14:46:17;3.38;;;3.17;;
7563;SDS011;3823;53.586;10.040;2023-05-07T14:48:44;5.53;;;3.38;;
7563;SDS011;3823;53.586;10.040;2023-05-07T14:51:10;3.13;;;2.92;;
7563;SDS011;3823;53.586;10.040;2023-05-07T14:53:36;3.20;;;3.00;;
7563;SDS011;3823;53.586;10.040;2023-05-07T14:56:02;4.05;;;2.78;;
7563;SDS011;3823;53.586;10.040;2023-05-07T14:58:28;3.15;;;2.95;;
7563;SDS011;3823;53.586;10.040;2023-05-07T15:00:53;3.20;;;2.92;;
7563;SDS011;3823;53.586;10.040;2023-05-07T15:03:19;2.45;;;2.25;;
7563;SDS011;3823;53.586;10.040;2023-05-07T15:05:44;3.40;;;3.17;;
7563;SDS011;3823;53.586;10.040;2023-05-07T15:08:10;2.50;;;2.30;;
7563;SDS011;3823;53.586;10.040;2023-05-07T15:10:36;3.20;;;1.90;;
7563;SDS011;3823;53.586;10.040;2023-05-07T15:13:05;2.92;;;2.72;;
7563;SDS011;3823;53.586;10.040;2023-05-07T15:15:32;3.55;;;2.60;;
7563;SDS011;3823;53.586;10.040;2023-05-07T15:17:57;3.05;;;2.85;;
7563;SDS011;3823;53.586;10.040;2023-05-07T15:20:25;3.55;;;2.75;;
7563;SDS011;3823;53.586;10.040;2023-05-07T15:22:50;3.10;;;2.90;;
7563;SDS011;3823;53.586;10.040;2023-05-07T15:25:16;6.20;;;2.70;;
7563;SDS011;3823;53.586;10.040;2023-05-07T15:27:42;2.95;;;2.67;;
7563;SDS011;3823;53.586;10.040;2023-05-07T15:30:07;3.10;;;2.90;;
7563;SDS011;3823;53.586;10.040;2023-05-07T15:32:35;13.05;;;2.60;;
7563;SDS011;3823;53.586;10.040;2023-05-07T15:35:01;2.60;;;2.50;;
7563;SDS011;3823;53.586;10.040;2023-05-07T15:37:27;2.70;;;2.50;;
7563;SDS011;3823;53.586;10.040;2023-05-07T15:39:52;3.00;;;2.80;;
7563;SDS011;3823;53.586;10.040;2023-05-07T15:42:18;2.58;;;2.38;;
7563;SDS011;3823;53.586;10.040;2023-05-07T15:44:43;2.75;;;2.25;;
7563;SDS011;3823;53.586;10.040;2023-05-07T15:47:09;6.30;;;2.90;;
7563;SDS011;3823;53.586;10.040;2023-05-07T15:49:34;3.20;;;2.67;;
7563;SDS011;3823;53.586;10.040;2023-05-07T15:52:00;3.13;;;2.80;;
7563;SDS011;3823;53.586;10.040;2023-05-07T15:54:26;2.53;;;2.42;;
7563;SDS011;3823;53.586;10.040;2023-05-07T15:56:51;5.53;;;3.00;;
7563;SDS011;3823;53.586;10.040;2023-05-07T15:59:17;2.90;;;2.67;;
7563;SDS011;3823;53.586;10.040;2023-05-07T16:01:42;3.53;;;3.22;;
7563;SDS011;3823;53.586;10.040;2023-05-07T16:04:09;3.00;;;2.80;;
7563;SDS011;3823;53.586;10.040;2023-05-07T16:06:35;3.20;;;3.00;;
7563;SDS011;3823;53.586;10.040;2023-05-07T16:09:00;3.42;;;3.22;;
7563;SDS011;3823;53.586;10.040;2023-05-07T16:11:26;5.55;;;2.83;;
7563;SDS011;3823;53.586;10.040;2023-05-07T16:13:54;3.83;;;2.92;;
7563;SDS011;3823;53.586;10.040;2023-05-07T16:16:20;3.25;;;2.13;;
7563;SDS011;3823;53.586;10.040;2023-05-07T16:18:45;2.20;;;2.10;;
7563;SDS011;3823;53.586;10.040;2023-05-07T16:21:11;3.53;;;2.70;;
7563;SDS011;3823;53.586;10.040;2023-05-07T16:23:37;2.63;;;2.47;;
7563;SDS011;3823;53.586;10.040;2023-05-07T16:26:03;2.80;;;2.60;;
7563;SDS011;3823;53.586;10.040;2023-05-07T16:28:29;2.50;;;2.30;;
7563;SDS011;3823;53.586;10.040;2023-05-07T16:30:55;2.28;;;2.08;;
7563;SDS011;3823;53.586;10.040;2023-05-07T16:33:20;2.83;;;2.63;;
7563;SDS011;3823;53.586;10.040;2023-05-07T16:35:52;2.90;;;2.70;;
7563;SDS011;3823;53.586;10.040;2023-05-07T16:38:17;2.97;;;2.78;;
7563;SDS011;3823;53.586;10.040;2023-05-07T16:40:43;2.80;;;2.17;;
7563;SDS011;3823;53.586;10.040;2023-05-07T16:43:09;3.10;;;2.90;;
7563;SDS011;3823;53.586;10.040;2023-05-07T16:45:35;2.67;;;2.47;;
7563;SDS011;3823;53.586;10.040;2023-05-07T16:48:00;3.03;;;2.72;;
7563;SDS011;3823;53.586;10.040;2023-05-07T16:50:27;3.85;;;2.30;;
7563;SDS011;3823;53.586;10.040;2023-05-07T16:52:52;2.70;;;2.50;;
7563;SDS011;3823;53.586;10.040;2023-05-07T16:55:18;3.10;;;2.83;;
7563;SDS011;3823;53.586;10.040;2023-05-07T16:57:44;3.20;;;2.90;;
7563;SDS011;3823;53.586;10.040;2023-05-07T17:00:09;2.83;;;2.63;;
7563;SDS011;3823;53.586;10.040;2023-05-07T17:02:35;2.67;;;2.47;;
7563;SDS011;3823;53.586;10.040;2023-05-07T17:05:02;2.70;;;2.50;;
7563;SDS011;3823;53.586;10.040;2023-05-07T17:07:30;2.80;;;2.53;;
7563;SDS011;3823;53.586;10.040;2023-05-07T17:09:55;2.70;;;2.50;;
7563;SDS011;3823;53.586;10.040;2023-05-07T17:12:21;3.42;;;2.47;;
7563;SDS011;3823;53.586;10.040;2023-05-07T17:14:46;2.70;;;2.50;;
7563;SDS011;3823;53.586;10.040;2023-05-07T17:17:12;2.70;;;2.50;;
7563;SDS011;3823;53.586;10.040;2023-05-07T17:19:37;3.28;;;2.97;;
7563;SDS011;3823;53.586;10.040;2023-05-07T17:22:03;6.65;;;3.10;;
7563;SDS011;3823;53.586;10.040;2023-05-07T17:24:29;5.32;;;2.83;;
7563;SDS011;3823;53.586;10.040;2023-05-07T17:26:54;3.63;;;3.08;;
7563;SDS011;3823;53.586;10.040;2023-05-07T17:29:20;3.00;;;2.50;;
7563;SDS011;3823;53.586;10.040;2023-05-07T17:31:46;4.03;;;2.78;;
7563;SDS011;3823;53.586;10.040;2023-05-07T17:34:12;2.70;;;2.50;;
7563;SDS011;3823;53.586;10.040;2023-05-07T17:36:38;2.90;;;2.58;;
7563;SDS011;3823;53.586;10.040;2023-05-07T17:39:03;4.63;;;2.83;;
7563;SDS011;3823;53.586;10.040;2023-05-07T17:41:29;2.75;;;2.58;;
7563;SDS011;3823;53.586;10.040;2023-05-07T17:43:54;2.85;;;2.65;;
7563;SDS011;3823;53.586;10.040;2023-05-07T17:46:20;2.70;;;2.50;;
7563;SDS011;3823;53.586;10.040;2023-05-07T17:48:46;2.40;;;2.20;;
7563;SDS011;3823;53.586;10.040;2023-05-07T17:51:11;3.05;;;2.67;;
7563;SDS011;3823;53.586;10.040;2023-05-07T17:53:37;3.53;;;2.90;;
7563;SDS011;3823;53.586;10.040;2023-05-07T17:56:03;2.58;;;2.38;;
7563;SDS011;3823;53.586;10.040;2023-05-07T17:58:29;2.80;;;2.40;;
7563;SDS011;3823;53.586;10.040;2023-05-07T18:00:55;3.88;;;2.35;;
7563;SDS011;3823;53.586;10.040;2023-05-07T18:03:21;3.17;;;2.88;;
7563;SDS011;3823;53.586;10.040;2023-05-07T18:05:48;3.45;;;2.58;;
7563;SDS011;3823;53.586;10.040;2023-05-07T18:08:14;2.80;;;2.60;;
7563;SDS011;3823;53.586;10.040;2023-05-07T18:10:40;3.50;;;2.33;;
7563;SDS011;3823;53.586;10.040;2023-05-07T18:13:05;2.20;;;2.10;;
7563;SDS011;3823;53.586;10.040;2023-05-07T18:15:31;5.53;;;3.38;;
7563;SDS011;3823;53.586;10.040;2023-05-07T18:17:56;3.15;;;2.78;;
7563;SDS011;3823;53.586;10.040;2023-05-07T18:20:22;2.90;;;2.70;;
7563;SDS011;3823;53.586;10.040;2023-05-07T18:22:48;4.28;;;2.28;;
7563;SDS011;3823;53.586;10.040;2023-05-07T18:25:13;3.00;;;2.80;;
7563;SDS011;3823;53.586;10.040;2023-05-07T18:27:39;3.85;;;2.58;;
7563;SDS011;3823;53.586;10.040;2023-05-07T18:30:05;2.80;;;2.60;;
7563;SDS011;3823;53.586;10.040;2023-05-07T18:32:31;13.35;;;3.20;;
7563;SDS011;3823;53.586;10.040;2023-05-07T18:34:56;5.95;;;2.85;;
7563;SDS011;3823;53.586;10.040;2023-05-07T18:37:22;3.25;;;2.95;;
7563;SDS011;3823;53.586;10.040;2023-05-07T18:39:48;2.80;;;2.60;;
7563;SDS011;3823;53.586;10.040;2023-05-07T18:42:13;2.90;;;2.70;;
7563;SDS011;3823;53.586;10.040;2023-05-07T18:44:39;3.05;;;2.63;;
7563;SDS011;3823;53.586;10.040;2023-05-07T18:47:05;3.50;;;2.40;;
7563;SDS011;3823;53.586;10.040;2023-05-07T18:49:31;3.28;;;2.47;;
7563;SDS011;3823;53.586;10.040;2023-05-07T18:51:57;2.72;;;2.50;;
7563;SDS011;3823;53.586;10.040;2023-05-07T18:54:23;2.45;;;2.30;;
7563;SDS011;3823;53.586;10.040;2023-05-07T18:56:48;3.97;;;3.10;;
7563;SDS011;3823;53.586;10.040;2023-05-07T18:59:14;3.47;;;2.88;;
7563;SDS011;3823;53.586;10.040;2023-05-07T19:01:40;2.85;;;2.22;;
7563;SDS011;3823;53.586;10.040;2023-05-07T19:04:05;2.28;;;2.17;;
7563;SDS011;3823;53.586;10.040;2023-05-07T19:06:31;2.70;;;2.50;;
7563;SDS011;3823;53.586;10.040;2023-05-07T19:08:56;2.60;;;2.42;;
7563;SDS011;3823;53.586;10.040;2023-05-07T19:11:22;3.28;;;2.97;;
7563;SDS011;3823;53.586;10.040;2023-05-07T19:13:48;3.20;;;2.30;;
7563;SDS011;3823;53.586;10.040;2023-05-07T19:16:14;2.80;;;2.33;;
7563;SDS011;3823;53.586;10.040;2023-05-07T19:18:40;2.97;;;2.55;;
7563;SDS011;3823;53.586;10.040;2023-05-07T19:21:06;4.43;;;2.65;;